Briefing drone pour Arpajon-sur-cere

Rechercher une autre localisation

Conditions de vol :


Nous sommes le : Jeudi 17 juin 2021
Il est 19:53 UTC (21:53 LT)

Lever de soleil : 03:37 UTC (05:37 LT)
Coucher de soleil : 20:05 UTC (22:05 LT)

Météo

L'essentiel des conditions de vol

VIGILANCE MÉTÉO FRANCE - Cantal (15)
Vigilance Jaune : Orages
METAR de LFLW
LFLW 171930Z AUTO 09004KT 9000 -RA SCT035/// BKN045/// BKN054/// ///CB 15/14 Q1014

Date d'émission: 17/06/2021
Heure d'émission: 19:30 UTC
Vent: 090° pour 4 KT (7 km/h)
Visibilité horizontale: 9000 m
Plafond :
- Nuages épars à 3500ft (1067m)
- Nuages morcelés à 4500ft (1372m)
- Nuages morcelés à 5400ft (1646m)
Température: 15 °C
Point de rosée: 14 °C
Humidité: 94%
Pression (QNH): 1014 hPa
Conditions: Faible pluie
Prévision 24h pour Aurillac (1 km)
Vent : 194° pour 2 KT (7 km/h)
Temperature Maxi: 25 °C
Temperature Min: 25 °C
Humidité : 43%
Condition : Nuageux



Warning: count(): Parameter must be an array or an object that implements Countable in /homepages/6/d509196549/htdocs/droneoxygene/briefing.php on line 743
WEBCAM POUR ARPAJON-SUR-CERE

Réglementation

Voler en sécurité

CARTES AERONAUTIQUE 1/500.000
CARTES VAC (LFLW)
SUP AIP




Chargement des AIP...
NOTAM (ARPAJON-SUR-CERE + Terrain à proximité / FIR )




Chargement des NOTAMS...
CONTACT PREFECTURE 15


Avertissement : Les données mises à disposition sont indicatives. Oxygène Drone ne pourra être tenu responsable de dégâts causés aux biens et aux personnes.